Palmerston, Tasmania

5:27 AM AEST on August 28, 2015 (GMT +1000)
Lower Coal Valley | | Change Station
CLOSE
Current Station
Personal Weather Station
Location: Richmond, TASMANIA
Elevation: 85 ft
Nearby Weather Stations

Elev 85 ft 42.71 °S, 147.45 °E | Updated 24 seconds ago

Mostly Cloudy
Mostly Cloudy
42.6 °F
Feels Like 43 °F
N
2.2
Wind Variable Wind from SSE
Gusts 12.1 mph

Today
High -- | Low -- °F
--% Chance of Precip.
Yesterday
High -- | Low -- °F
Precip. -- in
6:44 AM 5:39 PM
Waxing Gibbous, 94% visible
Pressure 30.24 in
Visibility 6.2 miles
Clouds Few 1500 ft
Scattered Clouds 3000 ft
Mostly Cloudy 8000 ft
Windchill 43 °F
Dew Point 38 °F
Humidity 84%
Rainfall 0.04 in
Snow Depth Not available.
UV 0 out of 12
Pollen Not available.
Air Quality Not available.
Flu Activity Not available.
METAR YMHB 271900Z 20015KT 9999 FEW015 SCT030 BKN080 07/02 Q1024
Pressure 30.24 in
Visibility 6.2 miles
Clouds Few 1500 ft
Scattered Clouds 3000 ft
Mostly Cloudy 8000 ft
Windchill 43 °F
Dew Point 38 °F
Humidity 84%
Rainfall 0.04 in
Snow Depth Not available.
UV 0 out of 12
Pollen Not available.
Air Quality Not available.
Flu Activity Not available.
METAR YMHB 271900Z 20015KT 9999 FEW015 SCT030 BKN080 07/02 Q1024

10-Day Weather Forecast

×

Almanac

Astronomy

Aug. 28, 2015 Rise Set
Actual Time
Civil Twilight
Nautical Twilight
Astronomical Twilight
Moon
Length of Visible Light
Length of Day
Tomorrow will be .
, % of the Moon is Illuminated

Today's Extremes

Country Highs Country Lows

Community

WunderPhotos

Upload Photos

1,850,195 photos uploaded!

WunderBlogs® & News

Nearby

Air Quality

  Air Quality AQ Index Pollutant
Not available.

Snow Depth

Station Depth Elevation

Earthquake Activity

City Distance Mag. Time & Date
Minimum magnitude displayed is 2.5.

Coastal Water Temperatures

Place Temperature

Stations

Nearby Weather Stations

Station Location Temp. Windchill Dew Point Humidity Wind Precip. Elev Updated Type